sensor_id;sensor_type;location;lat;lon;timestamp;temperature;humidity
24097;DHT22;12275;48.550;12.132;2023-04-02T00:11:39;8.10;99.90
24097;DHT22;12275;48.550;12.132;2023-04-02T00:14:12;8.10;99.90
24097;DHT22;12275;48.550;12.132;2023-04-02T00:16:39;8.10;99.90
24097;DHT22;12275;48.550;12.132;2023-04-02T00:19:06;8.10;99.90
24097;DHT22;12275;48.550;12.132;2023-04-02T00:21:33;8.10;99.90
24097;DHT22;12275;48.550;12.132;2023-04-02T00:24:00;8.10;99.90
24097;DHT22;12275;48.550;12.132;2023-04-02T00:26:36;8.10;99.90
24097;DHT22;12275;48.550;12.132;2023-04-02T00:29:03;8.10;99.90
24097;DHT22;12275;48.550;12.132;2023-04-02T00:31:29;8.10;99.90
24097;DHT22;12275;48.550;12.132;2023-04-02T00:33:55;8.10;99.90
24097;DHT22;12275;48.550;12.132;2023-04-02T00:36:21;8.10;99.90
24097;DHT22;12275;48.550;12.132;2023-04-02T00:38:49;8.10;99.90
24097;DHT22;12275;48.550;12.132;2023-04-02T00:41:15;8.10;99.90
24097;DHT22;12275;48.550;12.132;2023-04-02T00:43:44;8.00;99.90
24097;DHT22;12275;48.550;12.132;2023-04-02T00:46:18;8.00;99.90
24097;DHT22;12275;48.550;12.132;2023-04-02T00:49:07;8.00;99.90
24097;DHT22;12275;48.550;12.132;2023-04-02T00:51:41;8.00;99.90
24097;DHT22;12275;48.550;12.132;2023-04-02T00:54:09;8.00;99.90
24097;DHT22;12275;48.550;12.132;2023-04-02T00:59:12;7.90;99.90
24097;DHT22;12275;48.550;12.132;2023-04-02T01:01:40;8.00;99.90
24097;DHT22;12275;48.550;12.132;2023-04-02T01:04:15;7.90;99.90
24097;DHT22;12275;48.550;12.132;2023-04-02T01:06:50;8.00;99.90
24097;DHT22;12275;48.550;12.132;2023-04-02T01:09:20;8.00;99.90
24097;DHT22;12275;48.550;12.132;2023-04-02T01:14:30;8.00;99.90
24097;DHT22;12275;48.550;12.132;2023-04-02T01:20:03;8.00;99.90
24097;DHT22;12275;48.550;12.132;2023-04-02T01:25:01;8.00;99.90
24097;DHT22;12275;48.550;12.132;2023-04-02T01:27:31;8.00;99.90
24097;DHT22;12275;48.550;12.132;2023-04-02T01:29:59;8.00;99.90
24097;DHT22;12275;48.550;12.132;2023-04-02T01:32:25;8.00;99.90
24097;DHT22;12275;48.550;12.132;2023-04-02T01:34:52;8.00;99.90
24097;DHT22;12275;48.550;12.132;2023-04-02T01:45:15;8.00;99.90
24097;DHT22;12275;48.550;12.132;2023-04-02T01:47:41;8.00;99.90
24097;DHT22;12275;48.550;12.132;2023-04-02T01:52:38;8.00;99.90
24097;DHT22;12275;48.550;12.132;2023-04-02T01:55:06;7.90;99.90
24097;DHT22;12275;48.550;12.132;2023-04-02T01:57:31;7.90;99.90
24097;DHT22;12275;48.550;12.132;2023-04-02T01:59:58;7.90;99.90
24097;DHT22;12275;48.550;12.132;2023-04-02T02:02:24;7.90;99.90
24097;DHT22;12275;48.550;12.132;2023-04-02T02:04:50;7.90;99.90
24097;DHT22;12275;48.550;12.132;2023-04-02T02:07:17;7.80;99.90
24097;DHT22;12275;48.550;12.132;2023-04-02T02:09:43;7.80;99.90
24097;DHT22;12275;48.550;12.132;2023-04-02T02:12:10;7.80;99.90
24097;DHT22;12275;48.550;12.132;2023-04-02T02:14:37;7.80;99.90
24097;DHT22;12275;48.550;12.132;2023-04-02T02:17:13;7.80;99.90
24097;DHT22;12275;48.550;12.132;2023-04-02T02:19:44;7.80;99.90
24097;DHT22;12275;48.550;12.132;2023-04-02T02:24:42;7.80;99.90
24097;DHT22;12275;48.550;12.132;2023-04-02T02:29:53;7.80;99.90
24097;DHT22;12275;48.550;12.132;2023-04-02T02:32:20;7.80;99.90
24097;DHT22;12275;48.550;12.132;2023-04-02T02:35:07;7.80;99.90
24097;DHT22;12275;48.550;12.132;2023-04-02T02:37:39;7.70;99.90
24097;DHT22;12275;48.550;12.132;2023-04-02T02:40:16;7.70;99.90
24097;DHT22;12275;48.550;12.132;2023-04-02T02:43:01;7.70;99.90
24097;DHT22;12275;48.550;12.132;2023-04-02T02:45:30;7.70;99.90
24097;DHT22;12275;48.550;12.132;2023-04-02T02:47:57;7.70;99.90
24097;DHT22;12275;48.550;12.132;2023-04-02T02:50:25;7.70;99.90
24097;DHT22;12275;48.550;12.132;2023-04-02T02:52:53;7.70;99.90
24097;DHT22;12275;48.550;12.132;2023-04-02T02:55:37;7.70;99.90
24097;DHT22;12275;48.550;12.132;2023-04-02T03:00:31;7.60;99.90
24097;DHT22;12275;48.550;12.132;2023-04-02T03:02:57;7.60;99.90
24097;DHT22;12275;48.550;12.132;2023-04-02T03:05:24;7.70;99.90
24097;DHT22;12275;48.550;12.132;2023-04-02T03:07:50;7.70;99.90
24097;DHT22;12275;48.550;12.132;2023-04-02T03:15:57;7.70;99.90
24097;DHT22;12275;48.550;12.132;2023-04-02T03:18:29;7.70;99.90
24097;DHT22;12275;48.550;12.132;2023-04-02T03:21:03;7.70;99.90
24097;DHT22;12275;48.550;12.132;2023-04-02T03:23:38;7.70;99.90
24097;DHT22;12275;48.550;12.132;2023-04-02T03:28:32;7.70;99.90
24097;DHT22;12275;48.550;12.132;2023-04-02T03:31:00;7.70;99.90
24097;DHT22;12275;48.550;12.132;2023-04-02T03:33:34;7.70;99.90
24097;DHT22;12275;48.550;12.132;2023-04-02T03:38:42;7.70;99.90
24097;DHT22;12275;48.550;12.132;2023-04-02T03:43:36;7.70;99.90
24097;DHT22;12275;48.550;12.132;2023-04-02T03:48:33;7.70;99.90
24097;DHT22;12275;48.550;12.132;2023-04-02T03:51:13;7.70;99.90
24097;DHT22;12275;48.550;12.132;2023-04-02T03:53:41;7.70;99.90
24097;DHT22;12275;48.550;12.132;2023-04-02T03:56:07;7.70;99.90
24097;DHT22;12275;48.550;12.132;2023-04-02T03:58:45;7.70;99.90
24097;DHT22;12275;48.550;12.132;2023-04-02T04:03:51;7.70;99.90
24097;DHT22;12275;48.550;12.132;2023-04-02T04:06:24;7.70;99.90
24097;DHT22;12275;48.550;12.132;2023-04-02T04:08:53;7.70;99.90
24097;DHT22;12275;48.550;12.132;2023-04-02T04:12:07;7.60;99.90
24097;DHT22;12275;48.550;12.132;2023-04-02T04:14:07;7.60;99.90
24097;DHT22;12275;48.550;12.132;2023-04-02T04:16:41;7.60;99.90
24097;DHT22;12275;48.550;12.132;2023-04-02T04:19:20;7.60;99.90
24097;DHT22;12275;48.550;12.132;2023-04-02T04:21:49;7.60;99.90
24097;DHT22;12275;48.550;12.132;2023-04-02T04:24:18;7.60;99.90
24097;DHT22;12275;48.550;12.132;2023-04-02T04:27:02;7.60;99.90
24097;DHT22;12275;48.550;12.132;2023-04-02T04:29:49;7.60;99.90
24097;DHT22;12275;48.550;12.132;2023-04-02T04:34:44;7.60;99.90
24097;DHT22;12275;48.550;12.132;2023-04-02T04:37:19;7.60;99.90
24097;DHT22;12275;48.550;12.132;2023-04-02T04:39:56;7.60;99.90
24097;DHT22;12275;48.550;12.132;2023-04-02T04:42:23;7.60;99.90
24097;DHT22;12275;48.550;12.132;2023-04-02T04:52:35;7.60;99.90
24097;DHT22;12275;48.550;12.132;2023-04-02T04:55:01;7.60;99.90
24097;DHT22;12275;48.550;12.132;2023-04-02T04:59:57;7.60;99.90
24097;DHT22;12275;48.550;12.132;2023-04-02T05:02:25;7.60;99.90
24097;DHT22;12275;48.550;12.132;2023-04-02T05:04:52;7.60;99.90
24097;DHT22;12275;48.550;12.132;2023-04-02T05:07:22;7.60;99.90
24097;DHT22;12275;48.550;12.132;2023-04-02T05:12:16;7.60;99.90
24097;DHT22;12275;48.550;12.132;2023-04-02T05:14:48;7.50;99.90
24097;DHT22;12275;48.550;12.132;2023-04-02T05:19:42;7.60;99.90
24097;DHT22;12275;48.550;12.132;2023-04-02T05:24:43;7.60;99.90
24097;DHT22;12275;48.550;12.132;2023-04-02T05:27:17;7.60;99.90
24097;DHT22;12275;48.550;12.132;2023-04-02T05:29:45;7.60;99.90
24097;DHT22;12275;48.550;12.132;2023-04-02T05:32:15;7.50;99.90
24097;DHT22;12275;48.550;12.132;2023-04-02T05:34:41;7.50;99.90
24097;DHT22;12275;48.550;12.132;2023-04-02T05:37:15;7.60;99.90
24097;DHT22;12275;48.550;12.132;2023-04-02T05:39:43;7.60;99.90
24097;DHT22;12275;48.550;12.132;2023-04-02T05:42:14;7.50;99.90
24097;DHT22;12275;48.550;12.132;2023-04-02T05:44:46;7.50;99.90
24097;DHT22;12275;48.550;12.132;2023-04-02T05:47:15;7.50;99.90
24097;DHT22;12275;48.550;12.132;2023-04-02T05:49:46;7.50;99.90
24097;DHT22;12275;48.550;12.132;2023-04-02T05:52:15;7.50;99.90
24097;DHT22;12275;48.550;12.132;2023-04-02T05:54:51;7.50;99.90
24097;DHT22;12275;48.550;12.132;2023-04-02T05:57:19;7.50;99.90
24097;DHT22;12275;48.550;12.132;2023-04-02T05:59:48;7.40;99.90
24097;DHT22;12275;48.550;12.132;2023-04-02T06:02:24;7.50;99.90
24097;DHT22;12275;48.550;12.132;2023-04-02T06:07:21;7.50;99.90
24097;DHT22;12275;48.550;12.132;2023-04-02T06:12:23;7.50;99.90
24097;DHT22;12275;48.550;12.132;2023-04-02T06:14:50;7.50;99.90
24097;DHT22;12275;48.550;12.132;2023-04-02T06:17:16;7.50;99.90
24097;DHT22;12275;48.550;12.132;2023-04-02T06:19:42;7.50;99.90
24097;DHT22;12275;48.550;12.132;2023-04-02T06:22:13;7.50;99.90
24097;DHT22;12275;48.550;12.132;2023-04-02T06:24:39;7.50;99.90
24097;DHT22;12275;48.550;12.132;2023-04-02T06:27:05;7.40;99.90
24097;DHT22;12275;48.550;12.132;2023-04-02T06:29:34;7.40;99.90
24097;DHT22;12275;48.550;12.132;2023-04-02T06:32:08;7.40;99.90
24097;DHT22;12275;48.550;12.132;2023-04-02T06:34:35;7.40;99.90
24097;DHT22;12275;48.550;12.132;2023-04-02T06:37:13;7.40;99.90
24097;DHT22;12275;48.550;12.132;2023-04-02T06:39:39;7.40;99.90
24097;DHT22;12275;48.550;12.132;2023-04-02T06:42:18;7.40;99.90
24097;DHT22;12275;48.550;12.132;2023-04-02T06:44:44;7.40;99.90
24097;DHT22;12275;48.550;12.132;2023-04-02T06:49:41;7.40;99.90
24097;DHT22;12275;48.550;12.132;2023-04-02T06:52:17;7.40;99.90
24097;DHT22;12275;48.550;12.132;2023-04-02T06:54:45;7.40;99.90
24097;DHT22;12275;48.550;12.132;2023-04-02T06:57:11;7.40;99.90
24097;DHT22;12275;48.550;12.132;2023-04-02T06:59:36;7.40;99.90
24097;DHT22;12275;48.550;12.132;2023-04-02T07:04:46;7.40;99.90
24097;DHT22;12275;48.550;12.132;2023-04-02T07:07:12;7.40;99.90
24097;DHT22;12275;48.550;12.132;2023-04-02T07:09:38;7.50;99.90
24097;DHT22;12275;48.550;12.132;2023-04-02T07:12:10;7.50;99.90
24097;DHT22;12275;48.550;12.132;2023-04-02T07:14:36;7.50;99.90
24097;DHT22;12275;48.550;12.132;2023-04-02T07:17:01;7.60;99.90
24097;DHT22;12275;48.550;12.132;2023-04-02T07:19:27;7.60;99.90
24097;DHT22;12275;48.550;12.132;2023-04-02T07:21:52;7.60;99.90
24097;DHT22;12275;48.550;12.132;2023-04-02T07:24:18;7.60;99.90
24097;DHT22;12275;48.550;12.132;2023-04-02T07:26:43;7.60;99.90
24097;DHT22;12275;48.550;12.132;2023-04-02T07:29:12;7.60;99.90
24097;DHT22;12275;48.550;12.132;2023-04-02T07:31:38;7.60;99.90
24097;DHT22;12275;48.550;12.132;2023-04-02T07:34:05;7.60;99.90
24097;DHT22;12275;48.550;12.132;2023-04-02T07:36:31;7.60;99.90
24097;DHT22;12275;48.550;12.132;2023-04-02T07:38:57;7.60;99.90
24097;DHT22;12275;48.550;12.132;2023-04-02T07:41:22;7.60;99.90
24097;DHT22;12275;48.550;12.132;2023-04-02T07:43:48;7.50;99.90
24097;DHT22;12275;48.550;12.132;2023-04-02T07:46:13;7.50;99.90
24097;DHT22;12275;48.550;12.132;2023-04-02T07:48:41;7.50;99.90
24097;DHT22;12275;48.550;12.132;2023-04-02T07:51:13;7.50;99.90
24097;DHT22;12275;48.550;12.132;2023-04-02T07:53:39;7.50;99.90
24097;DHT22;12275;48.550;12.132;2023-04-02T07:56:07;7.50;99.90
24097;DHT22;12275;48.550;12.132;2023-04-02T07:58:32;7.50;99.90
24097;DHT22;12275;48.550;12.132;2023-04-02T08:00:58;7.50;99.90
24097;DHT22;12275;48.550;12.132;2023-04-02T08:03:24;7.40;99.90
24097;DHT22;12275;48.550;12.132;2023-04-02T08:05:50;7.50;99.90
24097;DHT22;12275;48.550;12.132;2023-04-02T08:08:17;7.50;99.90
24097;DHT22;12275;48.550;12.132;2023-04-02T08:10:42;7.50;99.90
24097;DHT22;12275;48.550;12.132;2023-04-02T08:13:08;7.50;99.90
24097;DHT22;12275;48.550;12.132;2023-04-02T08:15:35;7.50;99.90
24097;DHT22;12275;48.550;12.132;2023-04-02T08:18:00;7.50;99.90
24097;DHT22;12275;48.550;12.132;2023-04-02T08:20:26;7.50;99.90
24097;DHT22;12275;48.550;12.132;2023-04-02T08:22:52;7.50;99.90
24097;DHT22;12275;48.550;12.132;2023-04-02T08:25:17;7.60;99.90
24097;DHT22;12275;48.550;12.132;2023-04-02T08:27:45;7.60;99.90
24097;DHT22;12275;48.550;12.132;2023-04-02T08:30:11;7.60;99.90
24097;DHT22;12275;48.550;12.132;2023-04-02T08:32:37;7.50;99.90
24097;DHT22;12275;48.550;12.132;2023-04-02T08:35:05;7.60;99.90
24097;DHT22;12275;48.550;12.132;2023-04-02T08:37:31;7.60;99.90
24097;DHT22;12275;48.550;12.132;2023-04-02T08:39:56;7.70;99.90
24097;DHT22;12275;48.550;12.132;2023-04-02T08:42:30;7.60;99.90
24097;DHT22;12275;48.550;12.132;2023-04-02T08:47:43;7.70;99.90
24097;DHT22;12275;48.550;12.132;2023-04-02T08:52:39;7.70;99.90
24097;DHT22;12275;48.550;12.132;2023-04-02T08:55:12;7.70;99.90
24097;DHT22;12275;48.550;12.132;2023-04-02T08:58:01;7.70;99.90
24097;DHT22;12275;48.550;12.132;2023-04-02T09:00:33;7.70;99.90
24097;DHT22;12275;48.550;12.132;2023-04-02T09:02:59;7.70;99.90
24097;DHT22;12275;48.550;12.132;2023-04-02T09:05:27;7.80;99.90
24097;DHT22;12275;48.550;12.132;2023-04-02T09:07:54;7.80;99.90
24097;DHT22;12275;48.550;12.132;2023-04-02T09:10:20;7.90;99.90
24097;DHT22;12275;48.550;12.132;2023-04-02T09:12:50;7.80;99.90
24097;DHT22;12275;48.550;12.132;2023-04-02T09:15:19;7.80;99.90
24097;DHT22;12275;48.550;12.132;2023-04-02T09:17:47;7.90;99.90
24097;DHT22;12275;48.550;12.132;2023-04-02T09:20:22;7.90;99.90
24097;DHT22;12275;48.550;12.132;2023-04-02T09:22:49;8.00;99.90
24097;DHT22;12275;48.550;12.132;2023-04-02T09:25:33;8.00;99.90
24097;DHT22;12275;48.550;12.132;2023-04-02T09:28:00;8.10;99.90
24097;DHT22;12275;48.550;12.132;2023-04-02T09:33:01;8.10;99.90
24097;DHT22;12275;48.550;12.132;2023-04-02T09:35:35;8.10;99.90
24097;DHT22;12275;48.550;12.132;2023-04-02T09:38:15;8.10;99.90
24097;DHT22;12275;48.550;12.132;2023-04-02T09:40:55;8.10;99.90
24097;DHT22;12275;48.550;12.132;2023-04-02T09:43:33;8.20;99.90
24097;DHT22;12275;48.550;12.132;2023-04-02T09:46:03;8.20;99.90
24097;DHT22;12275;48.550;12.132;2023-04-02T09:48:36;8.30;99.90
24097;DHT22;12275;48.550;12.132;2023-04-02T09:53:35;8.30;99.90
24097;DHT22;12275;48.550;12.132;2023-04-02T09:56:08;8.40;99.90
24097;DHT22;12275;48.550;12.132;2023-04-02T09:58:34;8.50;99.90
24097;DHT22;12275;48.550;12.132;2023-04-02T10:01:00;8.50;99.90
24097;DHT22;12275;48.550;12.132;2023-04-02T10:03:27;8.40;99.90
24097;DHT22;12275;48.550;12.132;2023-04-02T10:06:02;8.50;99.90
24097;DHT22;12275;48.550;12.132;2023-04-02T10:08:28;8.50;99.90
24097;DHT22;12275;48.550;12.132;2023-04-02T10:10:56;8.60;99.90
24097;DHT22;12275;48.550;12.132;2023-04-02T10:13:27;8.60;99.90
24097;DHT22;12275;48.550;12.132;2023-04-02T10:21:09;8.60;99.90
24097;DHT22;12275;48.550;12.132;2023-04-02T10:23:36;8.60;99.90
24097;DHT22;12275;48.550;12.132;2023-04-02T10:26:23;8.60;99.90
24097;DHT22;12275;48.550;12.132;2023-04-02T10:36:56;8.80;99.90
24097;DHT22;12275;48.550;12.132;2023-04-02T10:42:25;8.80;99.90
24097;DHT22;12275;48.550;12.132;2023-04-02T10:47:41;8.90;99.90
24097;DHT22;12275;48.550;12.132;2023-04-02T10:50:19;9.00;99.90
24097;DHT22;12275;48.550;12.132;2023-04-02T10:52:51;9.00;99.90
24097;DHT22;12275;48.550;12.132;2023-04-02T10:55:29;9.00;99.90
24097;DHT22;12275;48.550;12.132;2023-04-02T10:57:56;9.10;99.90
24097;DHT22;12275;48.550;12.132;2023-04-02T11:00:24;9.30;99.90
24097;DHT22;12275;48.550;12.132;2023-04-02T11:02:56;9.50;99.90
24097;DHT22;12275;48.550;12.132;2023-04-02T11:05:28;9.60;99.90
24097;DHT22;12275;48.550;12.132;2023-04-02T11:08:01;9.60;99.90
24097;DHT22;12275;48.550;12.132;2023-04-02T11:10:29;9.60;99.90
24097;DHT22;12275;48.550;12.132;2023-04-02T11:12:57;9.50;99.90
24097;DHT22;12275;48.550;12.132;2023-04-02T11:15:25;9.50;99.90
24097;DHT22;12275;48.550;12.132;2023-04-02T11:17:51;9.40;99.90
24097;DHT22;12275;48.550;12.132;2023-04-02T11:23:14;9.50;99.90
24097;DHT22;12275;48.550;12.132;2023-04-02T11:25:41;9.50;99.90
24097;DHT22;12275;48.550;12.132;2023-04-02T11:28:17;9.50;99.90
24097;DHT22;12275;48.550;12.132;2023-04-02T11:30:47;9.50;99.90
24097;DHT22;12275;48.550;12.132;2023-04-02T11:35:53;9.50;99.90
24097;DHT22;12275;48.550;12.132;2023-04-02T11:48:41;9.40;99.90
24097;DHT22;12275;48.550;12.132;2023-04-02T11:53:45;9.50;99.90
24097;DHT22;12275;48.550;12.132;2023-04-02T12:01:17;9.50;99.90
24097;DHT22;12275;48.550;12.132;2023-04-02T12:03:50;9.50;99.90
24097;DHT22;12275;48.550;12.132;2023-04-02T12:08:55;9.40;99.90
24097;DHT22;12275;48.550;12.132;2023-04-02T12:11:33;9.40;99.90
24097;DHT22;12275;48.550;12.132;2023-04-02T12:14:01;9.40;99.90
24097;DHT22;12275;48.550;12.132;2023-04-02T12:16:27;9.40;99.90
24097;DHT22;12275;48.550;12.132;2023-04-02T12:18:57;9.30;99.90
24097;DHT22;12275;48.550;12.132;2023-04-02T12:21:26;9.30;99.90
24097;DHT22;12275;48.550;12.132;2023-04-02T12:23:53;9.20;99.90
24097;DHT22;12275;48.550;12.132;2023-04-02T12:26:27;9.20;99.90
24097;DHT22;12275;48.550;12.132;2023-04-02T12:29:12;9.20;99.90
24097;DHT22;12275;48.550;12.132;2023-04-02T12:31:41;9.20;99.90
24097;DHT22;12275;48.550;12.132;2023-04-02T12:34:10;9.20;99.90
24097;DHT22;12275;48.550;12.132;2023-04-02T12:36:37;9.20;99.90
24097;DHT22;12275;48.550;12.132;2023-04-02T12:39:02;9.20;99.90
24097;DHT22;12275;48.550;12.132;2023-04-02T12:41:29;9.20;99.90
24097;DHT22;12275;48.550;12.132;2023-04-02T12:43:59;9.30;99.90
24097;DHT22;12275;48.550;12.132;2023-04-02T12:46:25;9.40;99.90
24097;DHT22;12275;48.550;12.132;2023-04-02T12:48:52;9.40;99.90
24097;DHT22;12275;48.550;12.132;2023-04-02T12:51:18;9.30;99.90
24097;DHT22;12275;48.550;12.132;2023-04-02T12:53:46;9.10;99.90
24097;DHT22;12275;48.550;12.132;2023-04-02T12:56:20;9.00;99.90
24097;DHT22;12275;48.550;12.132;2023-04-02T12:59:01;9.00;99.90
24097;DHT22;12275;48.550;12.132;2023-04-02T13:01:28;9.00;99.90
24097;DHT22;12275;48.550;12.132;2023-04-02T13:06:32;9.00;99.90
24097;DHT22;12275;48.550;12.132;2023-04-02T13:09:02;9.00;99.90
24097;DHT22;12275;48.550;12.132;2023-04-02T13:11:34;9.00;99.90
24097;DHT22;12275;48.550;12.132;2023-04-02T13:14:01;9.00;99.90
24097;DHT22;12275;48.550;12.132;2023-04-02T13:16:28;9.00;99.90
24097;DHT22;12275;48.550;12.132;2023-04-02T13:21:34;9.10;99.90
24097;DHT22;12275;48.550;12.132;2023-04-02T13:24:00;9.10;99.90
24097;DHT22;12275;48.550;12.132;2023-04-02T13:26:26;9.10;99.90
24097;DHT22;12275;48.550;12.132;2023-04-02T13:31:24;9.10;99.90
24097;DHT22;12275;48.550;12.132;2023-04-02T13:33:50;9.00;99.90
24097;DHT22;12275;48.550;12.132;2023-04-02T13:36:15;9.00;99.90
24097;DHT22;12275;48.550;12.132;2023-04-02T13:38:41;9.00;99.90
24097;DHT22;12275;48.550;12.132;2023-04-02T13:43:51;9.00;99.90
24097;DHT22;12275;48.550;12.132;2023-04-02T13:46:19;8.90;99.90
24097;DHT22;12275;48.550;12.132;2023-04-02T13:48:45;8.80;99.90
24097;DHT22;12275;48.550;12.132;2023-04-02T13:51:17;8.80;99.90
24097;DHT22;12275;48.550;12.132;2023-04-02T13:53:44;8.80;99.90
24097;DHT22;12275;48.550;12.132;2023-04-02T13:56:10;8.90;99.90
24097;DHT22;12275;48.550;12.132;2023-04-02T13:58:36;8.90;99.90
24097;DHT22;12275;48.550;12.132;2023-04-02T14:01:02;8.90;99.90
24097;DHT22;12275;48.550;12.132;2023-04-02T14:03:27;9.00;99.90
24097;DHT22;12275;48.550;12.132;2023-04-02T14:06:11;9.10;99.90
24097;DHT22;12275;48.550;12.132;2023-04-02T14:13:38;9.20;99.90
24097;DHT22;12275;48.550;12.132;2023-04-02T14:24:05;8.80;99.90
24097;DHT22;12275;48.550;12.132;2023-04-02T14:26:37;8.70;99.90
24097;DHT22;12275;48.550;12.132;2023-04-02T14:29:06;8.70;99.90
24097;DHT22;12275;48.550;12.132;2023-04-02T14:36:56;8.80;99.90
24097;DHT22;12275;48.550;12.132;2023-04-02T14:42:01;8.80;99.90
24097;DHT22;12275;48.550;12.132;2023-04-02T14:44:29;8.80;99.90
24097;DHT22;12275;48.550;12.132;2023-04-02T14:47:01;8.70;99.90
24097;DHT22;12275;48.550;12.132;2023-04-02T14:49:36;8.60;99.90
24097;DHT22;12275;48.550;12.132;2023-04-02T14:52:05;8.40;99.90
24097;DHT22;12275;48.550;12.132;2023-04-02T14:54:34;8.40;99.90
24097;DHT22;12275;48.550;12.132;2023-04-02T15:07:48;8.50;99.90
24097;DHT22;12275;48.550;12.132;2023-04-02T15:10:23;8.50;99.90
24097;DHT22;12275;48.550;12.132;2023-04-02T15:12:51;8.50;99.90
24097;DHT22;12275;48.550;12.132;2023-04-02T15:15:35;8.40;99.90
24097;DHT22;12275;48.550;12.132;2023-04-02T15:18:03;8.40;99.90
24097;DHT22;12275;48.550;12.132;2023-04-02T15:20:34;8.40;99.90
24097;DHT22;12275;48.550;12.132;2023-04-02T15:30:50;8.20;99.90
24097;DHT22;12275;48.550;12.132;2023-04-02T15:38:46;8.10;99.90
24097;DHT22;12275;48.550;12.132;2023-04-02T15:41:24;8.00;99.90
24097;DHT22;12275;48.550;12.132;2023-04-02T15:44:00;7.90;99.90
24097;DHT22;12275;48.550;12.132;2023-04-02T15:59:40;7.40;99.90
24097;DHT22;12275;48.550;12.132;2023-04-02T16:12:36;7.30;99.90
24097;DHT22;12275;48.550;12.132;2023-04-02T16:15:10;7.20;99.90
24097;DHT22;12275;48.550;12.132;2023-04-02T16:17:39;7.20;99.90
24097;DHT22;12275;48.550;12.132;2023-04-02T16:22:38;7.20;99.90
24097;DHT22;12275;48.550;12.132;2023-04-02T16:25:15;7.30;99.90
24097;DHT22;12275;48.550;12.132;2023-04-02T16:27:43;7.20;99.90
24097;DHT22;12275;48.550;12.132;2023-04-02T16:42:52;7.20;99.90
24097;DHT22;12275;48.550;12.132;2023-04-02T16:45:37;7.20;99.90
24097;DHT22;12275;48.550;12.132;2023-04-02T16:48:16;7.20;99.90
24097;DHT22;12275;48.550;12.132;2023-04-02T16:51:05;7.20;99.90
24097;DHT22;12275;48.550;12.132;2023-04-02T16:53:46;7.00;99.90
24097;DHT22;12275;48.550;12.132;2023-04-02T16:56:20;7.00;99.90
24097;DHT22;12275;48.550;12.132;2023-04-02T17:06:40;6.90;99.90
24097;DHT22;12275;48.550;12.132;2023-04-02T17:09:09;7.00;99.90
24097;DHT22;12275;48.550;12.132;2023-04-02T17:11:39;7.10;99.90
24097;DHT22;12275;48.550;12.132;2023-04-02T17:14:10;7.00;99.90
24097;DHT22;12275;48.550;12.132;2023-04-02T17:16:40;6.90;99.90
24097;DHT22;12275;48.550;12.132;2023-04-02T17:19:08;6.80;99.90
24097;DHT22;12275;48.550;12.132;2023-04-02T17:21:34;6.80;99.90
24097;DHT22;12275;48.550;12.132;2023-04-02T17:26:38;6.60;99.90
24097;DHT22;12275;48.550;12.132;2023-04-02T17:29:06;6.50;99.90
24097;DHT22;12275;48.550;12.132;2023-04-02T17:31:32;6.40;99.90
24097;DHT22;12275;48.550;12.132;2023-04-02T17:34:00;6.40;99.90
24097;DHT22;12275;48.550;12.132;2023-04-02T17:41:42;6.30;99.90
24097;DHT22;12275;48.550;12.132;2023-04-02T17:49:13;6.20;99.90
24097;DHT22;12275;48.550;12.132;2023-04-02T18:02:00;5.90;99.90
24097;DHT22;12275;48.550;12.132;2023-04-02T18:04:40;5.80;99.90
24097;DHT22;12275;48.550;12.132;2023-04-02T18:07:27;5.70;99.90
24097;DHT22;12275;48.550;12.132;2023-04-02T18:10:01;5.80;99.90
24097;DHT22;12275;48.550;12.132;2023-04-02T18:25:23;5.70;99.90
24097;DHT22;12275;48.550;12.132;2023-04-02T18:38:56;5.50;99.90
24097;DHT22;12275;48.550;12.132;2023-04-02T18:46:21;5.40;99.90
24097;DHT22;12275;48.550;12.132;2023-04-02T18:48:56;5.30;99.90
24097;DHT22;12275;48.550;12.132;2023-04-02T18:51:24;5.20;99.90
24097;DHT22;12275;48.550;12.132;2023-04-02T18:53:53;5.20;99.90
24097;DHT22;12275;48.550;12.132;2023-04-02T18:56:20;5.20;99.90
24097;DHT22;12275;48.550;12.132;2023-04-02T19:01:14;5.20;99.90
24097;DHT22;12275;48.550;12.132;2023-04-02T19:03:46;5.20;99.90
24097;DHT22;12275;48.550;12.132;2023-04-02T19:06:17;5.20;99.90
24097;DHT22;12275;48.550;12.132;2023-04-02T19:08:49;5.20;99.90
24097;DHT22;12275;48.550;12.132;2023-04-02T19:11:20;5.20;99.90
24097;DHT22;12275;48.550;12.132;2023-04-02T19:13:59;5.10;99.90
24097;DHT22;12275;48.550;12.132;2023-04-02T19:16:29;5.10;99.90
24097;DHT22;12275;48.550;12.132;2023-04-02T19:29:16;5.00;99.90
24097;DHT22;12275;48.550;12.132;2023-04-02T19:42:00;4.90;99.90
24097;DHT22;12275;48.550;12.132;2023-04-02T19:44:27;4.90;99.90
24097;DHT22;12275;48.550;12.132;2023-04-02T19:46:53;4.90;99.90
24097;DHT22;12275;48.550;12.132;2023-04-02T19:49:31;4.80;99.90
24097;DHT22;12275;48.550;12.132;2023-04-02T19:51:58;4.90;99.90
24097;DHT22;12275;48.550;12.132;2023-04-02T19:54:23;4.80;99.90
24097;DHT22;12275;48.550;12.132;2023-04-02T19:56:49;4.80;99.90
24097;DHT22;12275;48.550;12.132;2023-04-02T19:59:14;4.80;99.90
24097;DHT22;12275;48.550;12.132;2023-04-02T20:01:40;4.80;99.90
24097;DHT22;12275;48.550;12.132;2023-04-02T20:04:06;4.80;99.90
24097;DHT22;12275;48.550;12.132;2023-04-02T20:06:32;4.80;99.90
24097;DHT22;12275;48.550;12.132;2023-04-02T20:08:58;4.80;99.90
24097;DHT22;12275;48.550;12.132;2023-04-02T20:11:24;4.90;99.90
24097;DHT22;12275;48.550;12.132;2023-04-02T20:13:51;4.90;99.90
24097;DHT22;12275;48.550;12.132;2023-04-02T20:16:17;4.80;99.90
24097;DHT22;12275;48.550;12.132;2023-04-02T20:18:42;4.80;99.90
24097;DHT22;12275;48.550;12.132;2023-04-02T20:21:08;4.70;99.90
24097;DHT22;12275;48.550;12.132;2023-04-02T20:23:34;4.70;99.90
24097;DHT22;12275;48.550;12.132;2023-04-02T20:26:00;4.70;99.90
24097;DHT22;12275;48.550;12.132;2023-04-02T20:28:27;4.70;99.90
24097;DHT22;12275;48.550;12.132;2023-04-02T20:30:52;4.80;99.90
24097;DHT22;12275;48.550;12.132;2023-04-02T20:33:19;4.80;99.90
24097;DHT22;12275;48.550;12.132;2023-04-02T20:35:46;4.80;99.90
24097;DHT22;12275;48.550;12.132;2023-04-02T20:38:11;4.80;99.90
24097;DHT22;12275;48.550;12.132;2023-04-02T20:40:40;4.80;99.90
24097;DHT22;12275;48.550;12.132;2023-04-02T20:43:06;4.80;99.90
24097;DHT22;12275;48.550;12.132;2023-04-02T20:45:32;4.80;99.90
24097;DHT22;12275;48.550;12.132;2023-04-02T20:47:57;4.80;99.90
24097;DHT22;12275;48.550;12.132;2023-04-02T20:50:23;4.90;99.90
24097;DHT22;12275;48.550;12.132;2023-04-02T20:52:49;4.80;99.90
24097;DHT22;12275;48.550;12.132;2023-04-02T20:55:15;4.80;99.90
24097;DHT22;12275;48.550;12.132;2023-04-02T20:57:40;4.80;99.90
24097;DHT22;12275;48.550;12.132;2023-04-02T21:00:06;4.80;99.90
24097;DHT22;12275;48.550;12.132;2023-04-02T21:02:32;4.70;99.90
24097;DHT22;12275;48.550;12.132;2023-04-02T21:04:58;4.70;99.90